Time;durP1;ratioP1;P1;durP2;ratioP2;P2;SDS_P1;SDS_P2;PMS_P1;PMS_P2;Temp;Humidity;BMP_temperature;BMP_pressure;BME280_temperature;BME280_humidity;BME280_pressure;Samples;Min_cycle;Max_cycle;Signal;HPM_P1;HPM_P2
2021/09/22 00:02:36;;;;;;;14.75;4.13;;;;;;;-144.51;100.00;69251.94;5125358;27;20102;-60
2021/09/22 00:05:22;;;;;;;16.92;3.72;;;;;;;-144.51;100.00;69251.94;5125524;27;20040;-60
2021/09/22 00:08:07;;;;;;;8.75;3.50;;;;;;;-144.51;100.00;69251.94;5123681;27;20422;-60
2021/09/22 00:10:52;;;;;;;;;;;;;;;-144.51;100.00;69251.94;5124430;27;20047;-61
2021/09/22 00:13:38;;;;;;;7.30;3.78;;;;;;;-144.51;100.00;69251.94;5126433;27;19930;-61
2021/09/22 00:16:23;;;;;;;13.32;3.85;;;;;;;-144.51;100.00;69251.94;5126689;27;20031;-61
2021/09/22 00:19:08;;;;;;;;;;;;;;;-144.51;100.00;69251.94;5122623;27;20035;-61
2021/09/22 00:21:53;;;;;;;4.35;2.40;;;;;;;-144.51;100.00;69251.94;5128324;27;19912;-61
2021/09/22 00:24:38;;;;;;;8.00;3.63;;;;;;;-144.51;100.00;69251.94;5125694;27;20035;-61
2021/09/22 00:27:24;;;;;;;7.80;3.65;;;;;;;-144.51;100.00;69251.94;5126289;27;20406;-60
2021/09/22 00:30:11;;;;;;;9.27;3.30;;;;;;;-144.51;100.00;69251.94;5121349;27;20035;-60
2021/09/22 00:32:56;;;;;;;5.25;2.95;;;;;;;-144.51;100.00;69251.94;5126208;27;20043;-60
2021/09/22 00:35:41;;;;;;;17.35;3.67;;;;;;;-144.51;100.00;69251.94;5122122;27;20031;-61
2021/09/22 00:38:26;;;;;;;7.70;4.25;;;;;;;-144.51;100.00;69251.94;5124257;27;20039;-60
2021/09/22 00:41:11;;;;;;;11.68;3.80;;;;;;;-144.51;100.00;69251.94;5121662;27;20040;-60
2021/09/22 00:43:56;;;;;;;;;;;;;;;-144.51;100.00;69251.94;5120080;27;20443;-60
2021/09/22 00:46:41;;;;;;;4.68;3.05;;;;;;;-144.51;100.00;69251.94;5122171;27;19912;-60
2021/09/22 00:49:26;;;;;;;7.80;3.88;;;;;;;-144.51;100.00;69251.94;5128888;27;20047;-60
2021/09/22 00:52:16;;;;;;;10.50;3.90;;;;;;;-144.51;100.00;69251.94;5119855;27;20031;-60
2021/09/22 00:55:03;;;;;;;11.00;4.00;;;;;;;-144.51;100.00;69251.94;5117714;27;20043;-60
2021/09/22 00:57:50;;;;;;;6.93;3.72;;;;;;;-144.51;100.00;69251.94;5119456;27;20043;-60
2021/09/22 01:00:37;;;;;;;6.25;3.63;;;;;;;-144.51;100.00;69251.94;5123718;27;20044;-60
2021/09/22 01:03:26;;;;;;;7.45;4.13;;;;;;;-144.51;100.00;69251.94;5119759;27;20047;-60
2021/09/22 01:06:14;;;;;;;7.20;4.13;;;;;;;-144.51;100.00;69251.94;5122208;27;20407;-60
2021/09/22 01:09:00;;;;;;;5.85;3.90;;;;;;;-144.51;100.00;69251.94;5124522;27;20066;-60
2021/09/22 01:11:46;;;;;;;10.32;4.47;;;;;;;-144.51;100.00;69251.94;5123667;27;20043;-60
2021/09/22 01:14:32;;;;;;;7.00;3.83;;;;;;;-144.51;100.00;69251.94;5114703;27;20032;-60
2021/09/22 01:17:20;;;;;;;;;;;;;;;-144.51;100.00;69251.94;5122257;27;20039;-60
2021/09/22 01:20:07;;;;;;;5.35;3.30;;;;;;;-144.51;100.00;69251.94;5122404;27;20284;-60
2021/09/22 01:22:59;;;;;;;6.72;3.58;;;;;;;-144.51;100.00;69251.94;5125213;27;20035;-61
2021/09/22 01:25:47;;;;;;;7.80;4.03;;;;;;;-144.51;100.00;69251.94;5122946;27;20035;-60
2021/09/22 01:28:32;;;;;;;6.18;3.13;;;;;;;-144.51;100.00;69251.94;5122660;27;20035;-60
2021/09/22 01:31:20;;;;;;;13.63;3.63;;;;;;;-144.51;100.00;69251.94;5123549;27;20039;-60
2021/09/22 01:34:08;;;;;;;10.77;3.42;;;;;;;-144.51;100.00;69251.94;5125229;27;20494;-61
2021/09/22 01:37:18;;;;;;;6.40;3.55;;;;;;;-144.51;100.00;69251.94;5122985;27;20031;-61
2021/09/22 01:40:21;;;;;;;9.50;3.38;;;;;;;-144.51;100.00;69251.94;5121569;27;20044;-61
2021/09/22 01:43:08;;;;;;;3.63;2.90;;;;;;;-144.51;100.00;69251.94;5124488;27;20047;-60
2021/09/22 01:46:06;;;;;;;5.45;2.78;;;;;;;-144.51;100.00;69251.94;5121038;27;20044;-61
2021/09/22 01:48:53;;;;;;;6.53;3.30;;;;;;;-144.51;100.00;69251.94;5117533;27;20055;-60
2021/09/22 01:51:39;;;;;;;4.03;2.88;;;;;;;-144.51;100.00;69251.94;5123328;27;20036;-61
2021/09/22 01:54:30;;;;;;;6.05;2.90;;;;;;;-144.51;100.00;69251.94;5120146;27;20031;-61
2021/09/22 01:57:15;;;;;;;7.07;3.35;;;;;;;-144.51;100.00;69251.94;5119178;27;20523;-61
2021/09/22 02:00:00;;;;;;;4.43;2.45;;;;;;;-144.51;100.00;69251.94;5127153;27;20047;-61
2021/09/22 02:03:04;;;;;;;7.32;3.00;;;;;;;-144.51;100.00;69251.94;5120881;27;20394;-61
2021/09/22 02:05:54;;;;;;;4.43;2.90;;;;;;;-144.51;100.00;69251.94;5117361;27;20043;-61
2021/09/22 02:08:43;;;;;;;5.25;3.30;;;;;;;-144.51;100.00;69251.94;5124097;27;20039;-61
2021/09/22 02:11:40;;;;;;;3.65;3.03;;;;;;;-144.51;100.00;69251.94;5117223;27;20051;-60
2021/09/22 02:14:28;;;;;;;6.13;3.10;;;;;;;-144.51;100.00;69251.94;5123005;27;20043;-62
2021/09/22 02:17:13;;;;;;;3.28;2.97;;;;;;;-144.51;100.00;69251.94;5100917;28;20048;-61
2021/09/22 02:20:03;;;;;;;4.20;3.10;;;;;;;-144.51;100.00;69251.94;5121756;27;20039;-62
2021/09/22 02:22:58;;;;;;;6.90;3.10;;;;;;;-144.51;100.00;69251.94;5125541;27;20039;-62
2021/09/22 02:25:46;;;;;;;5.28;2.55;;;;;;;-144.51;100.00;69251.94;5123235;27;20035;-63
2021/09/22 02:28:31;;;;;;;;;;;;;;;-144.51;100.00;69251.94;5118746;27;20047;-62
2021/09/22 02:31:16;;;;;;;11.38;2.90;;;;;;;-144.51;100.00;69251.94;5120245;27;19915;-63
2021/09/22 02:34:27;;;;;;;5.35;2.72;;;;;;;-144.51;100.00;69251.94;5123263;27;20039;-61
2021/09/22 02:37:14;;;;;;;4.88;3.00;;;;;;;-144.51;100.00;69251.94;5123610;27;20040;-60
2021/09/22 02:40:16;;;;;;;7.45;2.58;;;;;;;-144.51;100.00;69251.94;5121708;27;20036;-61
2021/09/22 02:43:01;;;;;;;4.65;3.22;;;;;;;-144.51;100.00;69251.94;5122690;27;20043;-61
2021/09/22 02:45:49;;;;;;;10.90;3.25;;;;;;;-144.51;100.00;69251.94;5123040;27;20044;-60
2021/09/22 02:48:34;;;;;;;8.80;3.47;;;;;;;-144.51;100.00;69251.94;5119684;27;20495;-60
2021/09/22 02:51:22;;;;;;;8.63;2.97;;;;;;;-144.51;100.00;69251.94;5119154;27;20047;-60
2021/09/22 02:54:06;;;;;;;;;;;;;;;-144.51;100.00;69251.94;5128378;27;20036;-61
2021/09/22 02:56:58;;;;;;;4.43;2.83;;;;;;;-144.51;100.00;69251.94;5116116;27;19912;-60
2021/09/22 02:59:43;;;;;;;4.22;2.92;;;;;;;-144.51;100.00;69251.94;5122848;27;20035;-61
2021/09/22 03:02:28;;;;;;;;;;;;;;;-144.51;100.00;69251.94;5124496;27;20039;-62
2021/09/22 03:05:13;;;;;;;9.32;2.97;;;;;;;-144.51;100.00;69251.94;5120111;28;19916;-61
2021/09/22 03:07:59;;;;;;;7.18;3.10;;;;;;;-144.51;100.00;69251.94;5114410;27;20044;-61
2021/09/22 03:10:44;;;;;;;4.97;2.78;;;;;;;-144.51;100.00;69251.94;5126819;27;20490;-60
2021/09/22 03:13:29;;;;;;;5.65;2.45;;;;;;;-144.51;100.00;69251.94;5121177;27;20039;-61
2021/09/22 03:16:14;;;;;;;;;;;;;;;-144.51;100.00;69251.94;5117812;28;20035;-61
2021/09/22 03:19:00;;;;;;;8.35;3.05;;;;;;;-144.51;100.00;69251.94;5118265;28;19911;-61
2021/09/22 03:21:45;;;;;;;15.05;4.22;;;;;;;-144.51;100.00;69251.94;5124870;27;20035;-62
2021/09/22 03:24:31;;;;;;;11.60;2.80;;;;;;;-144.51;100.00;69251.94;5118253;27;20039;-61
2021/09/22 03:27:17;;;;;;;4.10;2.80;;;;;;;-144.51;100.00;69251.94;5116898;27;20490;-62
2021/09/22 03:30:06;;;;;;;5.95;2.92;;;;;;;-144.51;100.00;69251.94;5129221;27;20035;-61
2021/09/22 03:32:53;;;;;;;17.23;3.38;;;;;;;-144.51;100.00;69251.94;5123973;27;20043;-61
2021/09/22 03:35:38;;;;;;;7.53;3.15;;;;;;;-144.51;100.00;69251.94;5129849;27;20032;-60
2021/09/22 03:38:24;;;;;;;16.10;3.58;;;;;;;-144.51;100.00;69251.94;5122903;27;20035;-60
2021/09/22 03:41:14;;;;;;;13.70;2.80;;;;;;;-144.51;100.00;69251.94;5124073;27;20437;-61
2021/09/22 03:43:59;;;;;;;8.85;2.30;;;;;;;-144.51;100.00;69251.94;5129430;27;20415;-61
2021/09/22 03:46:44;;;;;;;;;;;;;;;-144.51;100.00;69251.94;5124499;27;20048;-61
2021/09/22 03:49:29;;;;;;;13.18;2.85;;;;;;;-144.51;100.00;69251.94;5117680;27;19911;-61
2021/09/22 03:52:24;;;;;;;29.58;3.75;;;;;;;-144.51;100.00;69251.94;5125053;27;20043;-60
2021/09/22 03:55:09;;;;;;;6.75;3.25;;;;;;;-144.51;100.00;69251.94;5125509;27;20027;-61
2021/09/22 03:57:54;;;;;;;9.90;3.20;;;;;;;-144.51;100.00;69251.94;5120822;27;20040;-61
2021/09/22 04:00:39;;;;;;;;;;;;;;;-144.51;100.00;69251.94;5130555;27;20058;-62
2021/09/22 04:03:24;;;;;;;5.95;2.95;;;;;;;-144.51;100.00;69251.94;5125491;27;19911;-62
2021/09/22 04:06:09;;;;;;;12.45;3.50;;;;;;;-144.51;100.00;69251.94;5121385;27;20035;-61
2021/09/22 04:08:54;;;;;;;17.40;3.42;;;;;;;-144.51;100.00;69251.94;5122105;27;20414;-61
2021/09/22 04:11:41;;;;;;;10.55;3.08;;;;;;;-144.51;100.00;69251.94;5124821;27;20427;-60
2021/09/22 04:14:26;;;;;;;8.68;3.03;;;;;;;-144.51;100.00;69251.94;5124979;27;20039;-61
2021/09/22 04:17:11;;;;;;;8.23;2.95;;;;;;;-144.51;100.00;69251.94;5118491;27;20039;-61
2021/09/22 04:19:57;;;;;;;6.57;3.53;;;;;;;-144.51;100.00;69251.94;5126943;27;20043;-61
2021/09/22 04:22:42;;;;;;;8.07;3.17;;;;;;;-144.51;100.00;69251.94;5125759;27;20047;-61
2021/09/22 04:25:27;;;;;;;;;;;;;;;-144.51;100.00;69251.94;5124970;27;20054;-62
2021/09/22 04:28:19;;;;;;;9.10;2.95;;;;;;;-144.51;100.00;69251.94;5120646;27;20370;-61
2021/09/22 04:31:23;;;;;;;7.85;4.07;;;;;;;-144.51;100.00;69251.94;5123630;27;20043;-61
2021/09/22 04:34:27;;;;;;;6.97;3.30;;;;;;;-144.51;100.00;69251.94;5125474;27;20038;-61
2021/09/22 04:37:35;;;;;;;8.73;3.85;;;;;;;-144.51;100.00;69251.94;5118884;27;20490;-61
2021/09/22 04:40:39;;;;;;;8.23;4.07;;;;;;;-144.51;100.00;69251.94;5120634;27;20039;-61
2021/09/22 04:43:43;;;;;;;6.20;3.55;;;;;;;-144.51;100.00;69251.94;5120732;27;20043;-61
2021/09/22 04:46:49;;;;;;;6.93;3.75;;;;;;;-144.51;100.00;69251.94;5125050;27;20039;-61
2021/09/22 04:49:55;;;;;;;8.93;4.20;;;;;;;-144.51;100.00;69251.94;5120635;27;20039;-62
2021/09/22 04:53:04;;;;;;;8.52;3.95;;;;;;;-144.51;100.00;69251.94;5096912;27;20043;-62
2021/09/22 04:56:07;;;;;;;20.20;4.50;;;;;;;-144.51;100.00;69251.94;5123100;27;20414;-62
2021/09/22 04:59:11;;;;;;;5.53;3.63;;;;;;;-144.51;100.00;69251.94;5118969;27;20039;-62
2021/09/22 05:02:16;;;;;;;24.25;5.47;;;;;;;-144.51;100.00;69251.94;5119252;27;20040;-61
2021/09/22 05:05:19;;;;;;;12.95;3.63;;;;;;;-144.51;100.00;69251.94;5123744;27;20032;-61
2021/09/22 05:08:24;;;;;;;5.70;3.67;;;;;;;-144.51;100.00;69251.94;5124484;27;20043;-61
2021/09/22 05:11:28;;;;;;;7.15;3.53;;;;;;;-144.51;100.00;69251.94;5111738;27;20035;-62
2021/09/22 05:14:31;;;;;;;8.25;3.63;;;;;;;-144.51;100.00;69251.94;5120227;27;20568;-62
2021/09/22 05:17:35;;;;;;;5.90;3.20;;;;;;;-144.51;100.00;69251.94;5109753;27;20038;-61
2021/09/22 05:20:41;;;;;;;10.18;3.83;;;;;;;-144.51;100.00;69251.94;5119139;27;20047;-62
2021/09/22 05:23:44;;;;;;;9.52;3.88;;;;;;;-144.51;100.00;69251.94;5118619;27;20051;-62
2021/09/22 05:26:48;;;;;;;7.30;3.50;;;;;;;-144.51;100.00;69251.94;5116950;27;20628;-62
2021/09/22 05:29:52;;;;;;;5.40;3.28;;;;;;;-144.51;100.00;69251.94;5110464;27;20051;-62
2021/09/22 05:32:55;;;;;;;9.93;4.05;;;;;;;-144.51;100.00;69251.94;5116083;27;20411;-61
2021/09/22 05:35:58;;;;;;;9.48;3.47;;;;;;;-144.51;100.00;69251.94;5114261;27;20043;-62
2021/09/22 05:39:03;;;;;;;8.18;3.92;;;;;;;-144.51;100.00;69251.94;5108225;27;20039;-61
2021/09/22 05:42:07;;;;;;;7.97;3.47;;;;;;;-144.51;100.00;69251.94;5118885;27;20031;-62
2021/09/22 05:45:14;;;;;;;8.23;4.05;;;;;;;-144.51;100.00;69251.94;5105783;27;20039;-61
2021/09/22 05:48:17;;;;;;;8.52;3.83;;;;;;;-144.51;100.00;69251.94;5115700;27;20054;-62
2021/09/22 05:51:21;;;;;;;7.53;3.90;;;;;;;-144.51;100.00;69251.94;5117113;27;20027;-62
2021/09/22 05:54:25;;;;;;;9.13;3.42;;;;;;;-144.51;100.00;69251.94;5124220;27;20039;-62
2021/09/22 05:57:28;;;;;;;9.00;3.50;;;;;;;-144.51;100.00;69251.94;5122374;27;20035;-62
2021/09/22 06:00:32;;;;;;;11.00;3.13;;;;;;;-144.51;100.00;69251.94;5119133;27;20039;-62
2021/09/22 06:03:35;;;;;;;7.85;3.08;;;;;;;-144.51;100.00;69251.94;5119109;27;20483;-62
2021/09/22 06:06:39;;;;;;;4.53;2.80;;;;;;;-144.51;100.00;69251.94;5119099;27;20040;-62
2021/09/22 06:09:55;;;;;;;3.95;2.50;;;;;;;-144.51;100.00;69251.94;5115444;27;20039;-62
2021/09/22 06:12:57;;;;;;;10.52;3.00;;;;;;;-144.51;100.00;69251.94;5124380;27;20047;-62
2021/09/22 06:15:42;;;;;;;;;;;;;;;-144.51;100.00;69251.94;5124669;27;20715;-62
2021/09/22 06:18:27;;;;;;;13.88;3.45;;;;;;;-144.51;100.00;69251.94;5119187;27;19915;-61
2021/09/22 06:21:13;;;;;;;13.88;4.32;;;;;;;-144.51;100.00;69251.94;5121584;27;20429;-61
2021/09/22 06:24:00;;;;;;;15.10;3.33;;;;;;;-144.51;100.00;69251.94;5126124;27;20043;-62
2021/09/22 06:26:53;;;;;;;10.13;3.25;;;;;;;-144.51;100.00;69251.94;5120636;27;20035;-61
2021/09/22 06:29:38;;;;;;;11.65;3.58;;;;;;;-144.51;100.00;69251.94;5127943;27;20047;-62
2021/09/22 06:32:23;;;;;;;11.27;3.38;;;;;;;-144.51;100.00;69251.94;5129535;27;20042;-61
2021/09/22 06:35:28;;;;;;;13.90;3.92;;;;;;;-144.51;100.00;69251.94;5108784;28;20043;-61
2021/09/22 06:38:17;;;;;;;12.98;3.80;;;;;;;-144.51;100.00;69251.94;5119180;27;20031;-61
2021/09/22 06:41:07;;;;;;;12.70;3.50;;;;;;;-144.51;100.00;69251.94;5121777;27;20398;-61
2021/09/22 06:43:57;;;;;;;8.93;3.22;;;;;;;-144.51;100.00;69251.94;5112148;28;20039;-61
2021/09/22 06:46:43;;;;;;;11.73;3.17;;;;;;;-144.51;100.00;69251.94;5124210;27;20048;-62
2021/09/22 06:49:31;;;;;;;9.75;3.78;;;;;;;-144.51;100.00;69251.94;5118907;27;20043;-62
2021/09/22 06:52:18;;;;;;;8.90;3.50;;;;;;;-144.51;100.00;69251.94;5122898;27;20039;-61
2021/09/22 06:55:05;;;;;;;15.23;4.13;;;;;;;-144.51;100.00;69251.94;5130410;27;20035;-62
2021/09/22 06:57:51;;;;;;;14.13;4.35;;;;;;;-144.51;100.00;69251.94;5120826;28;20051;-62
2021/09/22 07:00:37;;;;;;;24.90;6.40;;;;;;;-144.51;100.00;69251.94;5122206;28;20039;-63
2021/09/22 07:03:22;;;;;;;21.30;5.00;;;;;;;-144.51;100.00;69251.94;5131770;27;20039;-64
2021/09/22 07:06:09;;;;;;;29.80;10.77;;;;;;;-144.51;100.00;69251.94;5129466;27;20035;-64
2021/09/22 07:08:54;;;;;;;20.58;6.45;;;;;;;-144.51;100.00;69251.94;5127705;27;20043;-63
2021/09/22 07:11:39;;;;;;;;;;;;;;;-144.51;100.00;69251.94;5130415;27;20044;-64
2021/09/22 07:14:23;;;;;;;18.23;6.07;;;;;;;-144.51;100.00;69251.94;5127402;27;19919;-65
2021/09/22 07:17:08;;;;;;;;;;;;;;;-144.51;100.00;69251.94;5123415;27;20044;-65
2021/09/22 07:19:53;;;;;;;9.80;6.32;;;;;;;-144.51;100.00;69251.94;5127003;27;19911;-65
2021/09/22 07:22:39;;;;;;;13.40;6.53;;;;;;;-144.51;100.00;69251.94;5128029;27;20051;-65
2021/09/22 07:25:24;;;;;;;20.88;7.45;;;;;;;-144.51;100.00;69251.94;5127085;27;20043;-64
2021/09/22 07:28:09;;;;;;;13.73;8.02;;;;;;;-144.51;100.00;69251.94;5126253;27;20043;-65
2021/09/22 07:30:54;;;;;;;16.70;7.13;;;;;;;-144.51;100.00;69251.94;5130534;27;20407;-67
2021/09/22 07:33:39;;;;;;;18.17;5.63;;;;;;;-144.51;100.00;69251.94;5124049;27;20101;-61
2021/09/22 07:36:24;;;;;;;11.95;6.00;;;;;;;-144.51;100.00;69251.94;5129163;27;20032;-61
2021/09/22 07:39:10;;;;;;;13.05;6.72;;;;;;;-144.51;100.00;69251.94;5124867;27;20039;-68
2021/09/22 07:41:55;;;;;;;29.30;7.55;;;;;;;-144.51;100.00;69251.94;5123629;27;20044;-61
2021/09/22 07:44:41;;;;;;;;;;;;;;;-144.51;100.00;69251.94;5130720;27;20035;-61
2021/09/22 07:47:26;;;;;;;20.23;6.40;;;;;;;-144.51;100.00;69251.94;5124133;27;19923;-61
2021/09/22 07:50:12;;;;;;;14.68;6.45;;;;;;;-144.51;100.00;69251.94;5119898;27;20039;-61
2021/09/22 07:52:57;;;;;;;13.32;6.22;;;;;;;-144.51;100.00;69251.94;5130330;27;20035;-61
2021/09/22 07:55:42;;;;;;;16.23;5.85;;;;;;;-144.51;100.00;69251.94;5128999;27;20040;-61
2021/09/22 07:58:27;;;;;;;12.93;6.60;;;;;;;-144.51;100.00;69251.94;5128007;27;20031;-60
2021/09/22 08:01:12;;;;;;;;;;;;;;;-144.51;100.00;69251.94;5123483;27;20036;-60
2021/09/22 08:03:57;;;;;;;15.25;5.82;;;;;;;-144.51;100.00;69251.94;5128565;27;19912;-60
2021/09/22 08:06:42;;;;;;;14.30;5.80;;;;;;;-144.51;100.00;69251.94;5127378;27;20036;-60
2021/09/22 08:09:27;;;;;;;21.67;5.88;;;;;;;-144.51;100.00;69251.94;5126092;27;20047;-60
2021/09/22 08:12:12;;;;;;;11.43;6.05;;;;;;;-144.51;100.00;69251.94;5126464;27;20036;-60
2021/09/22 08:14:57;;;;;;;13.80;5.85;;;;;;;-144.51;100.00;69251.94;5126128;27;20040;-60
2021/09/22 08:17:42;;;;;;;19.13;6.53;;;;;;;-144.51;100.00;69251.94;5125446;27;20491;-60
2021/09/22 08:20:27;;;;;;;6.07;4.60;;;;;;;-144.51;100.00;69251.94;5130401;27;20039;-60
2021/09/22 08:23:12;;;;;;;9.10;4.65;;;;;;;-144.51;100.00;69251.94;5124705;27;20044;-60
2021/09/22 08:25:57;;;;;;;10.57;5.32;;;;;;;-144.51;100.00;69251.94;5124214;27;20499;-60
2021/09/22 08:28:42;;;;;;;9.60;5.32;;;;;;;-144.51;100.00;69251.94;5127282;27;20499;-60
2021/09/22 08:31:27;;;;;;;11.65;4.70;;;;;;;-144.51;100.00;69251.94;5129113;27;20031;-60
2021/09/22 08:34:12;;;;;;;18.80;5.50;;;;;;;-144.51;100.00;69251.94;5123068;27;20036;-60
2021/09/22 08:36:58;;;;;;;8.70;4.60;;;;;;;-144.51;100.00;69251.94;5128496;27;20035;-60
2021/09/22 08:39:43;;;;;;;6.95;5.15;;;;;;;-144.51;100.00;69251.94;5128044;27;20043;-60
2021/09/22 08:42:28;;;;;;;;;;;;;;;-144.51;100.00;69251.94;5126775;27;20035;-60
2021/09/22 08:45:13;;;;;;;8.88;4.00;;;;;;;-144.51;100.00;69251.94;5127574;27;19911;-60
2021/09/22 08:47:59;;;;;;;18.75;4.70;;;;;;;-144.51;100.00;69251.94;5127048;27;20047;-60
2021/09/22 08:50:45;;;;;;;10.50;5.85;;;;;;;-144.51;100.00;69251.94;5126240;27;20043;-60
2021/09/22 08:53:30;;;;;;;12.18;4.93;;;;;;;-144.51;100.00;69251.94;5127983;27;20035;-60
2021/09/22 08:56:14;;;;;;;;;;;;;;;-144.51;100.00;69251.94;5126359;27;20036;-60
2021/09/22 08:58:59;;;;;;;11.32;5.03;;;;;;;-144.51;100.00;69251.94;5124580;27;19916;-60
2021/09/22 09:02:04;;;;;;;16.38;5.82;;;;;;;-144.51;100.00;69251.94;5129845;27;20479;-60
2021/09/22 09:05:15;;;;;;;10.85;6.13;;;;;;;-144.51;100.00;69251.94;5123411;27;20044;-60
2021/09/22 09:08:02;;;;;;;7.40;4.82;;;;;;;-144.51;100.00;69251.94;5127606;27;20040;-59
2021/09/22 09:10:54;;;;;;;15.25;6.43;;;;;;;-144.51;100.00;69251.94;5128456;27;20035;-60
2021/09/22 09:13:51;;;;;;;10.50;4.15;;;;;;;-144.51;100.00;69251.94;5124323;27;20035;-60
2021/09/22 09:16:50;;;;;;;7.22;4.32;;;;;;;-144.51;100.00;69251.94;5126804;27;20028;-60
2021/09/22 09:19:41;;;;;;;10.60;4.18;;;;;;;-144.51;100.00;69251.94;5124199;27;20044;-59
2021/09/22 09:22:25;;;;;;;7.13;3.55;;;;;;;-144.51;100.00;69251.94;5130052;27;20035;-60
2021/09/22 09:25:12;;;;;;;11.65;5.13;;;;;;;-144.51;100.00;69251.94;5123504;27;20039;-60
2021/09/22 09:27:57;;;;;;;7.97;4.38;;;;;;;-144.51;100.00;69251.94;5124226;27;20043;-60
2021/09/22 09:30:46;;;;;;;9.05;3.40;;;;;;;-144.51;100.00;69251.94;5123632;27;20047;-60
2021/09/22 09:33:35;;;;;;;10.80;3.60;;;;;;;-144.51;100.00;69251.94;5123805;27;20031;-60
2021/09/22 09:36:34;;;;;;;4.85;3.35;;;;;;;-144.51;100.00;69251.94;5118623;27;20032;-59
2021/09/22 09:39:23;;;;;;;3.72;2.85;;;;;;;-144.51;100.00;69251.94;5126007;27;20036;-60
2021/09/22 09:42:09;;;;;;;5.15;3.30;;;;;;;-144.51;100.00;69251.94;5120333;27;20051;-60
2021/09/22 09:44:57;;;;;;;9.55;2.90;;;;;;;-144.51;100.00;69251.94;5127444;27;20035;-60
2021/09/22 09:47:41;;;;;;;6.13;3.65;;;;;;;-144.51;100.00;69251.94;5127815;27;20043;-60
2021/09/22 09:50:27;;;;;;;3.75;2.40;;;;;;;-144.51;100.00;69251.94;5125293;27;20036;-60
2021/09/22 09:53:44;;;;;;;6.00;3.65;;;;;;;-144.51;100.00;69251.94;5121748;27;20039;-60
2021/09/22 09:56:32;;;;;;;6.43;4.22;;;;;;;-144.51;100.00;69251.94;5095545;27;20040;-59
2021/09/22 09:59:18;;;;;;;8.18;3.53;;;;;;;-144.51;100.00;69251.94;5121978;27;20411;-59
2021/09/22 10:02:03;;;;;;;6.65;4.20;;;;;;;-144.51;100.00;69251.94;5128928;27;20051;-60
2021/09/22 10:04:48;;;;;;;9.02;3.88;;;;;;;-144.51;100.00;69251.94;5127643;27;20418;-60
2021/09/22 10:07:35;;;;;;;5.85;2.90;;;;;;;-144.51;100.00;69251.94;5122311;27;20419;-60
2021/09/22 10:10:21;;;;;;;10.98;3.42;;;;;;;-144.51;100.00;69251.94;5119045;27;20051;-60
2021/09/22 10:13:06;;;;;;;9.77;3.38;;;;;;;-144.51;100.00;69251.94;5121547;27;20031;-60
2021/09/22 10:15:51;;;;;;;11.05;3.25;;;;;;;-144.51;100.00;69251.94;5122667;27;20039;-60
2021/09/22 10:18:36;;;;;;;17.25;4.97;;;;;;;-144.51;100.00;69251.94;5108281;27;20032;-60
2021/09/22 10:21:21;;;;;;;12.65;4.63;;;;;;;-144.51;100.00;69251.94;5125675;27;20043;-60
2021/09/22 10:24:11;;;;;;;17.08;3.90;;;;;;;-144.51;100.00;69251.94;5124425;27;20395;-60
2021/09/22 10:26:56;;;;;;;10.43;4.25;;;;;;;-144.51;100.00;69251.94;5111409;27;20483;-60
2021/09/22 10:30:14;;;;;;;9.02;5.00;;;;;;;-144.51;100.00;69251.94;5104655;27;20044;-59
2021/09/22 10:32:59;;;;;;;10.23;3.33;;;;;;;-144.51;100.00;69251.94;5107336;28;20052;-60
2021/09/22 10:35:53;;;;;;;7.00;3.45;;;;;;;-144.51;100.00;69251.94;5114960;28;20035;-60
2021/09/22 10:38:42;;;;;;;7.13;3.28;;;;;;;-144.51;100.00;69251.94;5111297;28;20499;-60
2021/09/22 10:41:30;;;;;;;3.65;2.90;;;;;;;-144.51;100.00;69251.94;5112227;28;20032;-60
2021/09/22 10:44:37;;;;;;;9.63;3.80;;;;;;;-144.51;100.00;69251.94;5115768;28;20119;-60
2021/09/22 10:47:24;;;;;;;12.02;3.58;;;;;;;-144.51;100.00;69251.94;5109996;27;20048;-60
2021/09/22 10:50:36;;;;;;;7.32;2.60;;;;;;;-144.51;100.00;69251.94;5104477;28;20403;-60
2021/09/22 10:54:15;;;;;;;5.70;2.95;;;;;;;-144.51;100.00;69251.94;5109928;28;20036;-59
2021/09/22 10:57:01;;;;;;;5.68;4.18;;;;;;;-144.51;100.00;69251.94;5107053;28;20044;-61
2021/09/22 10:59:46;;;;;;;4.97;3.22;;;;;;;-144.51;100.00;69251.94;5104350;28;20043;-60
2021/09/22 11:02:52;;;;;;;7.47;4.18;;;;;;;-144.51;100.00;69251.94;5115680;28;20043;-60
2021/09/22 11:05:38;;;;;;;5.57;3.33;;;;;;;-144.51;100.00;69251.94;5114477;28;20040;-61
2021/09/22 11:08:33;;;;;;;3.97;3.08;;;;;;;-144.51;100.00;69251.94;5111118;28;20044;-61
2021/09/22 11:11:18;;;;;;;4.25;2.60;;;;;;;-144.51;100.00;69251.94;5118072;27;20031;-61
2021/09/22 11:14:03;;;;;;;3.70;2.40;;;;;;;-144.51;100.00;69251.94;5117977;28;20051;-61
2021/09/22 11:16:49;;;;;;;7.28;2.40;;;;;;;-144.51;100.00;69251.94;5110685;28;20040;-61
2021/09/22 11:19:35;;;;;;;58.92;11.88;;;;;;;-144.51;100.00;69251.94;5112530;28;20039;-61
2021/09/22 11:22:26;;;;;;;314.35;58.20;;;;;;;-144.51;100.00;69251.94;5116972;27;20495;-60
2021/09/22 11:25:11;;;;;;;233.32;48.08;;;;;;;-144.51;100.00;69251.94;5115415;28;20039;-61
2021/09/22 11:28:03;;;;;;;172.27;34.70;;;;;;;-144.51;100.00;69251.94;5111471;28;20031;-61
2021/09/22 11:30:52;;;;;;;128.18;27.58;;;;;;;-144.51;100.00;69251.94;5110163;28;20044;-61
2021/09/22 11:33:37;;;;;;;59.65;13.65;;;;;;;-144.51;100.00;69251.94;5108461;28;20031;-61
2021/09/22 11:36:27;;;;;;;14.20;5.70;;;;;;;-144.51;100.00;69251.94;5114593;28;20039;-61
2021/09/22 11:39:27;;;;;;;19.40;7.68;;;;;;;-144.51;100.00;69251.94;5111542;28;20043;-61
2021/09/22 11:42:15;;;;;;;19.23;5.55;;;;;;;-144.51;100.00;69251.94;5113892;28;20035;-61
2021/09/22 11:45:00;;;;;;;24.15;5.63;;;;;;;-144.51;100.00;69251.94;5113663;28;20047;-60
2021/09/22 11:47:46;;;;;;;13.68;5.32;;;;;;;-144.51;100.00;69251.94;5112199;28;20036;-61
2021/09/22 11:50:37;;;;;;;5.95;3.20;;;;;;;-144.51;100.00;69251.94;5118632;28;20507;-61
2021/09/22 11:53:29;;;;;;;9.73;4.38;;;;;;;-144.51;100.00;69251.94;5117074;28;20039;-61
2021/09/22 11:56:14;;;;;;;6.10;3.13;;;;;;;-144.51;100.00;69251.94;5118390;28;20032;-61
2021/09/22 11:58:59;;;;;;;8.93;3.20;;;;;;;-144.51;100.00;69251.94;5115989;28;20040;-60
2021/09/22 12:01:54;;;;;;;5.85;3.33;;;;;;;-144.51;100.00;69251.94;5113616;28;20031;-61
2021/09/22 12:04:41;;;;;;;7.45;3.33;;;;;;;-144.51;100.00;69251.94;5112185;28;20036;-61
2021/09/22 12:07:30;;;;;;;11.05;2.97;;;;;;;-144.51;100.00;69251.94;5119142;28;20044;-60
2021/09/22 12:10:16;;;;;;;8.18;3.83;;;;;;;-144.51;100.00;69251.94;5114058;28;20039;-61
2021/09/22 12:13:03;;;;;;;6.65;2.38;;;;;;;-144.51;100.00;69251.94;5114590;28;20040;-61
2021/09/22 12:15:48;;;;;;;3.55;2.50;;;;;;;-144.51;100.00;69251.94;5118086;28;20047;-61
2021/09/22 12:18:33;;;;;;;10.95;4.70;;;;;;;-144.51;100.00;69251.94;5117160;28;20498;-61
2021/09/22 12:21:21;;;;;;;7.30;3.65;;;;;;;-144.51;100.00;69251.94;5109265;28;20047;-60
2021/09/22 12:24:07;;;;;;;7.97;5.68;;;;;;;-144.51;100.00;69251.94;5116631;28;20040;-61
2021/09/22 12:26:53;;;;;;;11.00;4.88;;;;;;;-144.51;100.00;69251.94;5110062;28;20044;-61
2021/09/22 12:29:59;;;;;;;12.80;6.25;;;;;;;-144.51;100.00;69251.94;5114433;28;20039;-61
2021/09/22 12:32:56;;;;;;;6.30;3.45;;;;;;;-144.51;100.00;69251.94;5115667;28;20031;-61
2021/09/22 12:35:42;;;;;;;6.95;2.92;;;;;;;-144.51;100.00;69251.94;5114395;28;20039;-61
2021/09/22 12:38:28;;;;;;;5.22;2.95;;;;;;;-144.51;100.00;69251.94;5111210;28;20040;-60
2021/09/22 12:41:13;;;;;;;5.07;2.78;;;;;;;-144.51;100.00;69251.94;5116503;28;20035;-61
2021/09/22 12:43:59;;;;;;;3.67;2.72;;;;;;;-144.51;100.00;69251.94;5112199;28;20407;-61
2021/09/22 12:46:48;;;;;;;5.90;3.58;;;;;;;-144.51;100.00;69251.94;5117170;28;20499;-61
2021/09/22 12:49:33;;;;;;;9.45;3.78;;;;;;;-144.51;100.00;69251.94;5116489;28;20039;-61
2021/09/22 12:52:22;;;;;;;9.00;2.38;;;;;;;-144.51;100.00;69251.94;5114824;28;20499;-60
2021/09/22 12:55:29;;;;;;;7.32;2.92;;;;;;;-144.51;100.00;69251.94;5117398;28;20043;-61